Home > Products > Valid Products > MTR

000
SAUS43 KEAX 160159
MTRCDJ
METAR KCDJ 160152Z AUTO 00000KT 12/10 A3023 RMK AO1 SLP236 T01170100





000
SAUS43 KEAX 160059
MTRCDJ
METAR KCDJ 160052Z AUTO 00000KT 14/11 A3022 RMK AO1 SLP229 T01390106





000
SAUS43 KEAX 152358
MTRCDJ
METAR KCDJ 152352Z AUTO 01007KT 16/11 A3020 RMK AO1 SLP224 T01560111
10211 20156 51019





000
SAUS43 KEAX 152259
MTRCDJ
METAR KCDJ 152252Z AUTO 35007G16KT 330V030 16/12 A3019 RMK AO1
SLP221 T01610117





000
SAUS43 KEAX 152159
MTRCDJ
METAR KCDJ 152152Z AUTO 34008KT 18/14 A3017 RMK AO1 SLP210 T01780139





000
SAUS43 KEAX 152059
MTRCDJ
METAR KCDJ 152052Z AUTO 35008G17KT 320V050 19/15 A3015 RMK AO1
SLP203 T01890150 53011





000
SAUS43 KEAX 151959
MTRCDJ
METAR KCDJ 151952Z AUTO VRB04KT 21/17 A3013 RMK AO1 SLP195 T02060167





000
SAUS43 KEAX 151859
MTRCDJ
METAR KCDJ 151852Z AUTO 34006KT 19/16 A3013 RMK AO1 SLP195 T01940161





000
SAUS43 KEAX 151759
MTRCDJ
METAR KCDJ 151752Z AUTO 00000KT 18/16 A3011 RMK AO1 SLP192 60028
T01780161 10178 20161 51018





000
SAUS43 KEAX 151659
MTRCDJ
METAR KCDJ 151652Z AUTO VRB04KT 17/16 A3010 RMK AO1 SLP186 P0001
T01720161





000
SAUS43 KEAX 151559
MTRCDJ
METAR KCDJ 151552Z AUTO 00000KT 18/16 A3008 RMK AO1 SLP180 T01780161





000
SAUS43 KEAX 151459
MTRCDJ
METAR KCDJ 151452Z AUTO 00000KT 17/16 A3006 RMK AO1 SLP173 60027
T01720156 55003





000
SAUS43 KEAX 151359
MTRCDJ
METAR KCDJ 151352Z AUTO 00000KT 17/16 A3005 RMK AO1 SLP169 T01670156





000
SAUS43 KEAX 151259
MTRCDJ
METAR KCDJ 151252Z AUTO 00000KT 16/15 A3007 RMK AO1 SLP176 P0027
T01610150





000
SAUS43 KEAX 151159
MTRCDJ
METAR KCDJ 151152Z AUTO 00000KT 16/14 A3007 RMK AO1 SLP177 T01610144
10183 20161 55007





000
SAUS43 KEAX 151059
MTRCDJ
METAR KCDJ 151052Z AUTO 14004KT 17/13 A3006 RMK AO1 SLP173 T01720128





000
SAUS43 KEAX 150959
MTRCDJ
METAR KCDJ 150952Z AUTO 13003KT 17/13 A3008 RMK AO1 SLP178 T01720128





000
SAUS43 KEAX 150859
MTRCDJ
METAR KCDJ 150852Z AUTO 08003KT 18/13 A3009 RMK AO1 SLP182 T01780128
56007





000
SAUS43 KEAX 150759
MTRCDJ
METAR KCDJ 150752Z AUTO 00000KT 18/13 A3010 RMK AO1 SLP186 T01780128





000
SAUS43 KEAX 150658
MTRCDJ
METAR KCDJ 150652Z AUTO 14003KT 18/13 A3010 RMK AO1 SLP185 T01780128





000
SAUS43 KEAX 150558
MTRCDJ
METAR KCDJ 150552Z AUTO 15003KT 18/13 A3011 RMK AO1 SLP190 T01780133
10200 20178 402220067 58008





000
SAUS43 KEAX 150459
MTRCDJ
METAR KCDJ 150452Z AUTO 15004KT 18/13 A3013 RMK AO1 SLP195 T01830128





000
SAUS43 KEAX 150359
MTRCDJ
METAR KCDJ 150352Z AUTO 14003KT 18/13 A3014 RMK AO1 SLP201 T01830133





000
SAUS43 KEAX 150259
MTRCDJ
METAR KCDJ 150252Z AUTO 17003KT 18/13 A3014 RMK AO1 SLP202 T01830133
53003





000
SAUS43 KEAX 150159
MTRCDJ
METAR KCDJ 150152Z AUTO 15004KT 19/13 A3012 RMK AO1 SLP197 T01890128





000
SAUS43 KEAX 150059
MTRCDJ
METAR KCDJ 150052Z AUTO 18004KT 19/13 A3012 RMK AO1 SLP196 T01890128





000
SAUS43 KEAX 142259
MTRCDJ
METAR KCDJ 142252Z AUTO 15006KT 22/12 A3013 RMK AO1 SLP199 T02170117





000
SAUS43 KEAX 142159
MTRCDJ
METAR KCDJ 142152Z AUTO 15004KT 22/12 A3015 RMK AO1 SLP205 T02220117





000
SAUS43 KEAX 142059
MTRCDJ
METAR KCDJ 142052Z AUTO 17006KT 22/10 A3016 RMK AO1 SLP210 T02170100
58025





000
SAUS43 KEAX 141959
MTRCDJ
METAR KCDJ 141952Z AUTO 17005KT 21/09 A3019 RMK AO1 SLP221 T02110094





000
SAUS43 KEAX 141859
MTRCDJ
METAR KCDJ 141852Z AUTO VRB04KT 21/09 A3021 RMK AO1 SLP231 T02060089





000
SAUS43 KEAX 141759
MTRCDJ
METAR KCDJ 141752Z AUTO VRB06KT 20/09 A3024 RMK AO1 SLP238 T02000089
10200 20106 58018





000
SAUS43 KEAX 141659
MTRCDJ
METAR KCDJ 141652Z AUTO 15003KT 19/08 A3026 RMK AO1 SLP245 T01890078





000
SAUS43 KEAX 141559
MTRCDJ
METAR KCDJ 141552Z AUTO VRB03KT 17/10 A3028 RMK AO1 SLP255 T01720100





000
SAUS43 KEAX 141459
MTRCDJ
METAR KCDJ 141452Z AUTO 00000KT 15/09 A3029 RMK AO1 SLP258 T01500094
51003





000
SAUS43 KEAX 141359
MTRCDJ
METAR KCDJ 141352Z AUTO 16003KT 13/08 A3029 RMK AO1 SLP258 T01280083





000
SAUS43 KEAX 141259
MTRCDJ
METAR KCDJ 141252Z AUTO 00000KT 11/08 A3029 RMK AO1 SLP258 T01110083





000
SAUS43 KEAX 141159
MTRCDJ
METAR KCDJ 141152Z AUTO 12003KT 11/08 A3028 RMK AO1 SLP254 T01060078
10106 20067 55001





000
SAUS43 KEAX 141059
MTRCDJ
METAR KCDJ 141052Z AUTO 13003KT 11/08 A3028 RMK AO1 SLP252 T01060083





000
SAUS43 KEAX 140959
MTRCDJ
METAR KCDJ 140952Z AUTO 00000KT 10/08 A3028 RMK AO1 SLP253 T01000083





000
SAUS43 KEAX 140859
MTRCDJ
METAR KCDJ 140852Z AUTO 00000KT 08/07 A3029 RMK AO1 SLP256 T00830072
58005





000
SAUS43 KEAX 140759
MTRCDJ
METAR KCDJ 140752Z AUTO 00000KT 07/06 A3029 RMK AO1 SLP260 T00720056





000
SAUS43 KEAX 140659
MTRCDJ
METAR KCDJ 140652Z AUTO 00000KT 07/06 A3030 RMK AO1 SLP261 T00720056





000
SAUS43 KEAX 140559
MTRCDJ
METAR KCDJ 140552Z AUTO 00000KT 07/06 A3030 RMK AO1 SLP262 T00720061
10156 20072 401720044 51005





000
SAUS43 KEAX 140459
MTRCDJ
METAR KCDJ 140452Z AUTO 00000KT 08/07 A3030 RMK AO1 SLP262 T00780067





000
SAUS43 KEAX 140358
MTRCDJ
METAR KCDJ 140352Z AUTO 00000KT 08/07 A3029 RMK AO1 SLP260 T00830067





000
SAUS43 KEAX 140258
MTRCDJ
METAR KCDJ 140252Z AUTO 00000KT 09/07 A3029 RMK AO1 SLP257 T00940072
50002





000
SAUS43 KEAX 140159
MTRCDJ
METAR KCDJ 140152Z AUTO 00000KT 09/08 A3030 RMK AO1 SLP264 T00940078





000
SAUS43 KEAX 140058
MTRCDJ
METAR KCDJ 140052Z AUTO 00000KT 11/08 A3029 RMK AO1 SLP261 T01110078





000
SAUS43 KEAX 132359
MTRCDJ
METAR KCDJ 132352Z AUTO 15004KT 16/06 A3028 RMK AO1 SLP257 T01560056
10172 20150 56015





000
SAUS43 KEAX 132259
MTRCDJ
METAR KCDJ 132252Z AUTO 18005KT 17/05 A3030 RMK AO1 SLP260 T01670050





000
SAUS43 KEAX 132159
MTRCDJ
METAR KCDJ 132152Z AUTO 17006KT 17/05 A3029 RMK AO1 SLP260 T01670050





000
SAUS43 KEAX 132059
MTRCDJ
METAR KCDJ 132052Z AUTO 15008KT 17/04 A3032 RMK AO1 SLP270 T01670044
56025





000
SAUS43 KEAX 131958
MTRCDJ
METAR KCDJ 131952Z AUTO 15006KT 16/05 A3034 RMK AO1 SLP277 T01610050





000
SAUS43 KEAX 131859
MTRCDJ
METAR KCDJ 131852Z AUTO 17004KT 15/04 A3037 RMK AO1 SLP287 T01500039





000
SAUS43 KEAX 131759
MTRCDJ
METAR KCDJ 131752Z AUTO 15007KT 15/04 A3040 RMK AO1 SLP297 T01500039
10156 20044 58011





000
SAUS43 KEAX 131658
MTRCDJ
METAR KCDJ 131652Z AUTO 09006KT 14/04 A3042 RMK AO1 SLP303 T01440044





000
SAUS43 KEAX 131559
MTRCDJ
METAR KCDJ 131552Z AUTO 05004KT 13/06 A3043 RMK AO1 SLP308 T01280056





000
SAUS43 KEAX 131459
MTRCDJ
METAR KCDJ 131452Z AUTO 05003KT 12/06 A3043 RMK AO1 SLP308 T01220061
52002





000
SAUS43 KEAX 131359
MTRCDJ
METAR KCDJ 131352Z AUTO 01003KT 10/07 A3043 RMK AO1 SLP307 T01000067





000
SAUS43 KEAX 131258
MTRCDJ
METAR KCDJ 131252Z AUTO 00000KT 07/06 A3043 RMK AO1 SLP310 T00670061





000
SAUS43 KEAX 131159
MTRCDJ
METAR KCDJ 131152Z AUTO 00000KT 04/03 A3043 RMK AO1 SLP309 T00440033
10061 20044 53004





000
SAUS43 KEAX 131059
MTRCDJ
METAR KCDJ 131052Z AUTO 00000KT 05/04 A3041 RMK AO1 SLP303 T00500039





000
SAUS43 KEAX 130959
MTRCDJ
METAR KCDJ 130952Z AUTO 00000KT 06/04 A3041 RMK AO1 SLP301 T00560039





000
SAUS43 KEAX 130859
MTRCDJ
METAR KCDJ 130852Z AUTO 00000KT 05/04 A3041 RMK AO1 SLP305 T00500039
56004





000
SAUS43 KEAX 130759
MTRCDJ
METAR KCDJ 130752Z AUTO 00000KT 06/04 A3041 RMK AO1 SLP304 T00560039





000
SAUS43 KEAX 130658
MTRCDJ
METAR KCDJ 130652Z AUTO 00000KT 06/04 A3042 RMK AO1 SLP307 T00560044





000
SAUS43 KEAX 130559
MTRCDJ
METAR KCDJ 130552Z AUTO 00000KT 06/05 A3043 RMK AO1 SLP308 T00610050
10111 20061 401280061 51006





000
SAUS43 KEAX 130459
MTRCDJ
METAR KCDJ 130452Z AUTO 00000KT 07/05 A3042 RMK AO1 SLP306 T00670050





000
SAUS43 KEAX 130359
MTRCDJ
METAR KCDJ 130352Z AUTO 00000KT 07/06 A3041 RMK AO1 SLP303 T00720056





000
SAUS43 KEAX 130259
MTRCDJ
METAR KCDJ 130252Z AUTO 00000KT 08/06 A3041 RMK AO1 SLP300 T00830061
51008





    US Dept of Commerce
    National Oceanic and Atmospheric Administration
    National Weather Service
    1325 East West Highway
    Silver Spring, MD 20910
    Page Author: NWS Internet Services Team
Disclaimer
Information Quality
Credits
Glossary
Privacy Policy
Freedom of Information Act (FOIA)
About Us
Career Opportunities